sensor_id;sensor_type;location;lat;lon;timestamp;pressure;altitude;pressure_sealevel;temperature;humidity
47761;BME280;33524;55.434;38.520;2022-08-11T00:01:04;101086.16;;;12.92;81.93
47761;BME280;33524;55.434;38.520;2022-08-11T00:03:33;101087.97;;;12.79;82.66
47761;BME280;33524;55.434;38.520;2022-08-11T00:06:10;101086.00;;;12.69;83.45
47761;BME280;33524;55.434;38.520;2022-08-11T00:08:41;101086.72;;;12.71;82.60
47761;BME280;33524;55.434;38.520;2022-08-11T00:11:10;101086.59;;;12.73;82.88
47761;BME280;33524;55.434;38.520;2022-08-11T00:13:46;101098.25;;;12.58;83.92
47761;BME280;33524;55.434;38.520;2022-08-11T00:16:19;101087.03;;;12.67;83.75
47761;BME280;33524;55.434;38.520;2022-08-11T00:18:48;101087.03;;;12.54;84.38
47761;BME280;33524;55.434;38.520;2022-08-11T00:21:16;101090.34;;;12.45;84.54
47761;BME280;33524;55.434;38.520;2022-08-11T00:24:01;101085.56;;;12.50;84.43
47761;BME280;33524;55.434;38.520;2022-08-11T00:26:29;101086.22;;;12.41;85.18
47761;BME280;33524;55.434;38.520;2022-08-11T00:29:06;101084.75;;;12.37;85.48
47761;BME280;33524;55.434;38.520;2022-08-11T00:31:35;101083.47;;;12.29;85.73
47761;BME280;33524;55.434;38.520;2022-08-11T00:34:04;101097.38;;;12.19;86.99
47761;BME280;33524;55.434;38.520;2022-08-11T00:36:38;101098.56;;;12.27;85.93
47761;BME280;33524;55.434;38.520;2022-08-11T00:39:05;101105.63;;;12.27;86.31
47761;BME280;33524;55.434;38.520;2022-08-11T00:41:46;101095.59;;;13.07;78.85
47761;BME280;33524;55.434;38.520;2022-08-11T00:44:28;101107.91;;;12.83;81.40
47761;BME280;33524;55.434;38.520;2022-08-11T00:47:26;101108.53;;;13.36;76.64
47761;BME280;33524;55.434;38.520;2022-08-11T00:50:11;101110.34;;;13.23;77.13
47761;BME280;33524;55.434;38.520;2022-08-11T01:00:31;101108.06;;;12.30;84.54
47761;BME280;33524;55.434;38.520;2022-08-11T01:05:47;101113.22;;;12.06;87.11
47761;BME280;33524;55.434;38.520;2022-08-11T01:10:53;101128.19;;;12.05;87.30
47761;BME280;33524;55.434;38.520;2022-08-11T01:29:33;101127.53;;;11.89;86.94
47761;BME280;33524;55.434;38.520;2022-08-11T01:37:36;101139.13;;;11.45;91.83
47761;BME280;33524;55.434;38.520;2022-08-11T01:40:55;101135.59;;;11.31;92.91
47761;BME280;33524;55.434;38.520;2022-08-11T01:43:24;101135.13;;;11.39;91.94
47761;BME280;33524;55.434;38.520;2022-08-11T01:46:18;101140.78;;;11.33;92.83
47761;BME280;33524;55.434;38.520;2022-08-11T01:54:26;101141.44;;;11.22;93.96
47761;BME280;33524;55.434;38.520;2022-08-11T01:59:48;101153.69;;;11.50;91.07
47761;BME280;33524;55.434;38.520;2022-08-11T02:02:30;101157.62;;;11.58;90.30
47761;BME280;33524;55.434;38.520;2022-08-11T02:10:56;101154.78;;;12.79;78.92
47761;BME280;33524;55.434;38.520;2022-08-11T02:16:20;101167.91;;;12.68;78.70
47761;BME280;33524;55.434;38.520;2022-08-11T02:19:00;101164.31;;;12.43;80.37
47761;BME280;33524;55.434;38.520;2022-08-11T02:22:04;101165.87;;;12.20;80.93
47761;BME280;33524;55.434;38.520;2022-08-11T02:25:28;101171.53;;;12.14;82.20
47761;BME280;33524;55.434;38.520;2022-08-11T02:27:52;101177.06;;;12.37;81.56
47761;BME280;33524;55.434;38.520;2022-08-11T02:30:23;101179.72;;;12.37;80.87
47761;BME280;33524;55.434;38.520;2022-08-11T02:38:24;101177.06;;;12.49;80.56
47761;BME280;33524;55.434;38.520;2022-08-11T02:46:40;101195.53;;;11.97;86.02
47761;BME280;33524;55.434;38.520;2022-08-11T02:49:11;101200.72;;;11.57;90.66
47761;BME280;33524;55.434;38.520;2022-08-11T02:57:21;101208.53;;;11.85;87.31
47761;BME280;33524;55.434;38.520;2022-08-11T03:13:08;101206.63;;;12.02;89.85
47761;BME280;33524;55.434;38.520;2022-08-11T03:16:07;101206.75;;;12.13;88.85
47761;BME280;33524;55.434;38.520;2022-08-11T03:21:45;101215.56;;;12.26;89.29
47761;BME280;33524;55.434;38.520;2022-08-11T03:36:05;101218.78;;;12.83;87.22
47761;BME280;33524;55.434;38.520;2022-08-11T03:38:44;101227.25;;;13.01;86.48
47761;BME280;33524;55.434;38.520;2022-08-11T03:44:33;101226.47;;;13.50;81.21
47761;BME280;33524;55.434;38.520;2022-08-11T03:53:22;101217.34;;;13.78;80.52
47761;BME280;33524;55.434;38.520;2022-08-11T04:03:39;101215.09;;;15.25;70.83
47761;BME280;33524;55.434;38.520;2022-08-11T04:06:21;101217.84;;;15.57;70.57
47761;BME280;33524;55.434;38.520;2022-08-11T04:14:15;101227.28;;;15.93;69.72
47761;BME280;33524;55.434;38.520;2022-08-11T04:25:36;101223.59;;;16.17;72.27
47761;BME280;33524;55.434;38.520;2022-08-11T04:31:01;101223.81;;;17.79;66.83
47761;BME280;33524;55.434;38.520;2022-08-11T04:39:26;101219.16;;;18.88;64.46
47761;BME280;33524;55.434;38.520;2022-08-11T04:48:02;101220.81;;;20.00;61.68
47761;BME280;33524;55.434;38.520;2022-08-11T04:50:54;101221.25;;;20.31;61.19
47761;BME280;33524;55.434;38.520;2022-08-11T04:53:55;101216.37;;;19.73;63.55
47761;BME280;33524;55.434;38.520;2022-08-11T04:56:44;101218.91;;;20.72;60.96
47761;BME280;33524;55.434;38.520;2022-08-11T05:13:23;101213.19;;;22.03;58.77
47761;BME280;33524;55.434;38.520;2022-08-11T05:16:12;101224.09;;;21.93;58.83
47761;BME280;33524;55.434;38.520;2022-08-11T05:19:00;101208.88;;;22.43;56.30
47761;BME280;33524;55.434;38.520;2022-08-11T05:21:52;101220.50;;;21.60;59.03
47761;BME280;33524;55.434;38.520;2022-08-11T05:24:42;101217.66;;;21.70;60.64
47761;BME280;33524;55.434;38.520;2022-08-11T05:27:31;101221.56;;;21.92;61.36
47761;BME280;33524;55.434;38.520;2022-08-11T05:30:18;101220.13;;;22.30;57.12
47761;BME280;33524;55.434;38.520;2022-08-11T05:33:05;101217.88;;;20.65;62.28
47761;BME280;33524;55.434;38.520;2022-08-11T05:36:00;101212.69;;;22.65;60.47
47761;BME280;33524;55.434;38.520;2022-08-11T05:38:33;101206.47;;;23.29;58.72
47761;BME280;33524;55.434;38.520;2022-08-11T05:41:21;101204.28;;;24.56;55.74
47761;BME280;33524;55.434;38.520;2022-08-11T05:44:09;101221.47;;;23.54;51.97
47761;BME280;33524;55.434;38.520;2022-08-11T05:46:55;101214.19;;;24.32;56.89
47761;BME280;33524;55.434;38.520;2022-08-11T05:49:47;101215.84;;;23.64;57.48
47761;BME280;33524;55.434;38.520;2022-08-11T05:52:39;101205.78;;;25.54;53.34
47761;BME280;33524;55.434;38.520;2022-08-11T05:55:30;101203.16;;;26.19;51.77
47761;BME280;33524;55.434;38.520;2022-08-11T05:58:32;101200.63;;;26.46;50.73
47761;BME280;33524;55.434;38.520;2022-08-11T06:01:08;101205.25;;;25.59;52.00
47761;BME280;33524;55.434;38.520;2022-08-11T06:03:37;101205.66;;;24.96;51.01
47761;BME280;33524;55.434;38.520;2022-08-11T06:06:25;101209.63;;;26.53;52.35
47761;BME280;33524;55.434;38.520;2022-08-11T06:08:56;101197.69;;;27.45;50.24
47761;BME280;33524;55.434;38.520;2022-08-11T06:11:25;101203.13;;;27.65;49.45
47761;BME280;33524;55.434;38.520;2022-08-11T06:14:11;101201.25;;;27.59;49.72
47761;BME280;33524;55.434;38.520;2022-08-11T06:16:40;101204.00;;;27.79;49.63
47761;BME280;33524;55.434;38.520;2022-08-11T06:19:08;101212.41;;;28.24;48.37
47761;BME280;33524;55.434;38.520;2022-08-11T06:21:37;101197.81;;;28.25;48.63
47761;BME280;33524;55.434;38.520;2022-08-11T06:24:10;101200.69;;;26.81;52.87
47761;BME280;33524;55.434;38.520;2022-08-11T06:26:39;101198.25;;;27.95;50.40
47761;BME280;33524;55.434;38.520;2022-08-11T06:29:27;101200.41;;;27.45;47.10
47761;BME280;33524;55.434;38.520;2022-08-11T06:32:04;101190.50;;;28.72;44.49
47761;BME280;33524;55.434;38.520;2022-08-11T06:34:52;101188.47;;;28.08;48.58
47761;BME280;33524;55.434;38.520;2022-08-11T06:37:24;101187.72;;;28.99;42.81
47761;BME280;33524;55.434;38.520;2022-08-11T06:40:03;101196.16;;;28.04;45.12
47761;BME280;33524;55.434;38.520;2022-08-11T06:42:55;101186.56;;;29.72;46.85
47761;BME280;33524;55.434;38.520;2022-08-11T06:45:32;101197.81;;;28.52;48.47
47761;BME280;33524;55.434;38.520;2022-08-11T06:48:04;101186.97;;;29.30;48.32
47761;BME280;33524;55.434;38.520;2022-08-11T06:50:36;101183.94;;;30.41;45.68
47761;BME280;33524;55.434;38.520;2022-08-11T06:53:23;101189.94;;;30.68;44.88
47761;BME280;33524;55.434;38.520;2022-08-11T06:55:51;101180.13;;;31.04;42.61
47761;BME280;33524;55.434;38.520;2022-08-11T06:58:46;101190.63;;;29.11;49.31
47761;BME280;33524;55.434;38.520;2022-08-11T07:04:38;101203.37;;;27.15;54.98
47761;BME280;33524;55.434;38.520;2022-08-11T07:07:28;101188.47;;;28.61;39.91
47761;BME280;33524;55.434;38.520;2022-08-11T07:14:01;101180.31;;;28.68;40.77
47761;BME280;33524;55.434;38.520;2022-08-11T07:16:49;101185.56;;;29.60;48.14
47761;BME280;33524;55.434;38.520;2022-08-11T07:19:22;101183.50;;;29.16;40.16
47761;BME280;33524;55.434;38.520;2022-08-11T07:22:10;101193.53;;;29.86;48.12
47761;BME280;33524;55.434;38.520;2022-08-11T07:24:58;101191.44;;;29.11;47.28
47761;BME280;33524;55.434;38.520;2022-08-11T07:27:51;101181.31;;;31.56;38.22
47761;BME280;33524;55.434;38.520;2022-08-11T07:30:41;101184.31;;;31.67;44.15
47761;BME280;33524;55.434;38.520;2022-08-11T07:33:10;101184.81;;;29.84;38.66
47761;BME280;33524;55.434;38.520;2022-08-11T07:35:59;101177.00;;;30.45;43.46
47761;BME280;33524;55.434;38.520;2022-08-11T07:38:33;101170.34;;;31.33;41.30
47761;BME280;33524;55.434;38.520;2022-08-11T07:41:14;101176.31;;;33.02;42.06
47761;BME280;33524;55.434;38.520;2022-08-11T07:43:43;101166.50;;;34.43;39.00
47761;BME280;33524;55.434;38.520;2022-08-11T07:46:15;101178.84;;;32.80;33.88
47761;BME280;33524;55.434;38.520;2022-08-11T07:49:03;101175.28;;;31.96;35.63
47761;BME280;33524;55.434;38.520;2022-08-11T07:51:50;101180.69;;;27.65;42.24
47761;BME280;33524;55.434;38.520;2022-08-11T07:54:38;101182.00;;;33.12;42.64
47761;BME280;33524;55.434;38.520;2022-08-11T07:57:07;101183.03;;;31.81;44.00
47761;BME280;33524;55.434;38.520;2022-08-11T08:00:14;101174.97;;;35.07;38.54
47761;BME280;33524;55.434;38.520;2022-08-11T08:03:01;101171.00;;;35.42;37.19
47761;BME280;33524;55.434;38.520;2022-08-11T08:05:49;101188.22;;;31.41;41.77
47761;BME280;33524;55.434;38.520;2022-08-11T08:08:56;101177.69;;;34.24;39.75
47761;BME280;33524;55.434;38.520;2022-08-11T08:11:43;101164.53;;;34.21;30.10
47761;BME280;33524;55.434;38.520;2022-08-11T08:14:30;101166.06;;;36.04;36.26
47761;BME280;33524;55.434;38.520;2022-08-11T08:17:17;101163.94;;;37.22;34.29
47761;BME280;33524;55.434;38.520;2022-08-11T08:20:04;101175.09;;;36.42;32.07
47761;BME280;33524;55.434;38.520;2022-08-11T08:22:36;101175.38;;;34.16;34.83
47761;BME280;33524;55.434;38.520;2022-08-11T08:25:07;101179.09;;;34.27;39.60
47761;BME280;33524;55.434;38.520;2022-08-11T08:27:36;101173.19;;;33.67;41.02
47761;BME280;33524;55.434;38.520;2022-08-11T08:30:10;101180.00;;;34.32;32.73
47761;BME280;33524;55.434;38.520;2022-08-11T08:32:57;101173.97;;;35.68;37.17
47761;BME280;33524;55.434;38.520;2022-08-11T08:35:27;101171.78;;;36.34;35.42
47761;BME280;33524;55.434;38.520;2022-08-11T08:37:59;101177.56;;;32.70;30.23
47761;BME280;33524;55.434;38.520;2022-08-11T08:40:27;101175.75;;;33.28;36.76
47761;BME280;33524;55.434;38.520;2022-08-11T08:42:56;101173.69;;;31.65;34.47
47761;BME280;33524;55.434;38.520;2022-08-11T08:45:24;101185.87;;;31.74;39.81
47761;BME280;33524;55.434;38.520;2022-08-11T08:48:01;101182.19;;;31.69;44.69
47761;BME280;33524;55.434;38.520;2022-08-11T08:50:36;101181.03;;;31.16;45.15
47761;BME280;33524;55.434;38.520;2022-08-11T08:53:24;101179.44;;;32.34;40.85
47761;BME280;33524;55.434;38.520;2022-08-11T08:55:56;101169.94;;;34.16;38.79
47761;BME280;33524;55.434;38.520;2022-08-11T08:58:25;101167.56;;;35.25;36.64
47761;BME280;33524;55.434;38.520;2022-08-11T09:00:57;101166.06;;;35.66;35.43
47761;BME280;33524;55.434;38.520;2022-08-11T09:03:29;101169.59;;;35.99;35.03
47761;BME280;33524;55.434;38.520;2022-08-11T09:06:18;101171.09;;;36.17;33.90
47761;BME280;33524;55.434;38.520;2022-08-11T09:08:48;101181.44;;;36.47;33.31
47761;BME280;33524;55.434;38.520;2022-08-11T09:11:18;101171.53;;;36.99;32.76
47761;BME280;33524;55.434;38.520;2022-08-11T09:14:08;101170.16;;;36.96;32.55
47761;BME280;33524;55.434;38.520;2022-08-11T09:16:41;101162.37;;;37.62;31.82
47761;BME280;33524;55.434;38.520;2022-08-11T09:19:12;101159.00;;;35.43;28.55
47761;BME280;33524;55.434;38.520;2022-08-11T09:21:41;101159.97;;;36.92;26.94
47761;BME280;33524;55.434;38.520;2022-08-11T09:24:16;101168.09;;;31.48;29.23
47761;BME280;33524;55.434;38.520;2022-08-11T09:27:04;101176.53;;;30.29;39.85
47761;BME280;33524;55.434;38.520;2022-08-11T09:29:33;101168.09;;;36.61;33.65
47761;BME280;33524;55.434;38.520;2022-08-11T09:32:01;101174.75;;;30.42;34.75
47761;BME280;33524;55.434;38.520;2022-08-11T09:34:29;101177.62;;;30.84;44.86
47761;BME280;33524;55.434;38.520;2022-08-11T09:36:57;101174.53;;;29.16;39.44
47761;BME280;33524;55.434;38.520;2022-08-11T09:40:05;101174.50;;;28.57;38.47
47761;BME280;33524;55.434;38.520;2022-08-11T09:42:58;101178.34;;;29.85;46.64
47761;BME280;33524;55.434;38.520;2022-08-11T09:45:48;101175.19;;;32.38;40.87
47761;BME280;33524;55.434;38.520;2022-08-11T09:48:18;101162.13;;;30.91;42.51
47761;BME280;33524;55.434;38.520;2022-08-11T09:50:50;101157.28;;;33.30;40.10
47761;BME280;33524;55.434;38.520;2022-08-11T09:53:20;101147.81;;;32.81;28.80
47761;BME280;33524;55.434;38.520;2022-08-11T09:56:12;101137.91;;;34.67;26.07
47761;BME280;33524;55.434;38.520;2022-08-11T09:59:00;101139.09;;;33.36;31.61
47761;BME280;33524;55.434;38.520;2022-08-11T10:01:33;101145.56;;;35.42;35.48
47761;BME280;33524;55.434;38.520;2022-08-11T10:04:09;101146.56;;;32.24;28.05
47761;BME280;33524;55.434;38.520;2022-08-11T10:06:40;101149.84;;;31.18;43.24
47761;BME280;33524;55.434;38.520;2022-08-11T10:14:44;101130.22;;;38.19;30.97
47761;BME280;33524;55.434;38.520;2022-08-11T10:17:34;101127.75;;;37.25;23.78
47761;BME280;33524;55.434;38.520;2022-08-11T10:20:03;101141.22;;;32.76;29.06
47761;BME280;33524;55.434;38.520;2022-08-11T10:22:34;101123.38;;;37.95;31.68
47761;BME280;33524;55.434;38.520;2022-08-11T10:25:21;101126.09;;;34.45;27.24
47761;BME280;33524;55.434;38.520;2022-08-11T10:28:07;101116.81;;;36.04;33.71
47761;BME280;33524;55.434;38.520;2022-08-11T10:30:56;101109.66;;;38.06;28.81
47761;BME280;33524;55.434;38.520;2022-08-11T10:33:43;101114.00;;;37.14;22.25
47761;BME280;33524;55.434;38.520;2022-08-11T10:36:31;101123.41;;;34.67;34.84
47761;BME280;33524;55.434;38.520;2022-08-11T10:39:01;101126.41;;;36.54;33.93
47761;BME280;33524;55.434;38.520;2022-08-11T10:41:30;101126.72;;;35.18;23.44
47761;BME280;33524;55.434;38.520;2022-08-11T10:44:38;101120.25;;;35.89;33.75
47761;BME280;33524;55.434;38.520;2022-08-11T10:47:07;101134.12;;;32.28;26.75
47761;BME280;33524;55.434;38.520;2022-08-11T10:49:56;101132.37;;;30.15;30.24
47761;BME280;33524;55.434;38.520;2022-08-11T10:52:47;101146.88;;;28.22;35.19
47761;BME280;33524;55.434;38.520;2022-08-11T10:55:34;101143.75;;;27.98;36.75
47761;BME280;33524;55.434;38.520;2022-08-11T10:58:25;101139.19;;;30.25;47.37
47761;BME280;33524;55.434;38.520;2022-08-11T11:01:12;101130.16;;;31.05;43.69
47761;BME280;33524;55.434;38.520;2022-08-11T11:03:41;101130.91;;;31.84;42.77
47761;BME280;33524;55.434;38.520;2022-08-11T11:06:20;101137.34;;;32.13;42.25
47761;BME280;33524;55.434;38.520;2022-08-11T11:09:06;101122.50;;;33.09;37.43
47761;BME280;33524;55.434;38.520;2022-08-11T11:11:38;101113.72;;;34.81;28.65
47761;BME280;33524;55.434;38.520;2022-08-11T11:14:29;101123.94;;;32.59;29.87
47761;BME280;33524;55.434;38.520;2022-08-11T11:17:28;101119.44;;;33.51;38.02
47761;BME280;33524;55.434;38.520;2022-08-11T11:20:20;101107.13;;;37.07;31.62
47761;BME280;33524;55.434;38.520;2022-08-11T11:30:40;101103.97;;;32.18;28.78
47761;BME280;33524;55.434;38.520;2022-08-11T11:33:26;101106.28;;;30.40;31.31
47761;BME280;33524;55.434;38.520;2022-08-11T11:36:37;101088.31;;;34.36;28.31
47761;BME280;33524;55.434;38.520;2022-08-11T11:39:12;101103.25;;;32.34;39.12
47761;BME280;33524;55.434;38.520;2022-08-11T11:41:40;101100.94;;;31.18;30.38
47761;BME280;33524;55.434;38.520;2022-08-11T11:44:08;101091.31;;;33.16;35.94
47761;BME280;33524;55.434;38.520;2022-08-11T11:46:38;101101.03;;;30.20;32.56
47761;BME280;33524;55.434;38.520;2022-08-11T11:49:06;101109.47;;;28.84;32.24
47761;BME280;33524;55.434;38.520;2022-08-11T11:51:44;101113.28;;;27.30;33.09
47761;BME280;33524;55.434;38.520;2022-08-11T11:54:16;101121.59;;;25.89;34.21
47761;BME280;33524;55.434;38.520;2022-08-11T11:56:44;101117.63;;;25.42;36.51
47761;BME280;33524;55.434;38.520;2022-08-11T11:59:12;101116.00;;;26.47;39.82
47761;BME280;33524;55.434;38.520;2022-08-11T12:02:00;101121.63;;;27.35;48.75
47761;BME280;33524;55.434;38.520;2022-08-11T12:04:39;101126.22;;;27.54;50.72
47761;BME280;33524;55.434;38.520;2022-08-11T12:07:08;101107.97;;;27.76;44.35
47761;BME280;33524;55.434;38.520;2022-08-11T12:09:56;101111.28;;;28.18;49.80
47761;BME280;33524;55.434;38.520;2022-08-11T12:12:24;101097.91;;;29.72;45.15
47761;BME280;33524;55.434;38.520;2022-08-11T12:15:11;101106.06;;;27.64;34.67
47761;BME280;33524;55.434;38.520;2022-08-11T12:17:39;101097.97;;;28.17;35.02
47761;BME280;33524;55.434;38.520;2022-08-11T12:20:07;101082.28;;;28.66;33.08
47761;BME280;33524;55.434;38.520;2022-08-11T12:22:55;101083.97;;;29.69;32.03
47761;BME280;33524;55.434;38.520;2022-08-11T12:25:45;101085.28;;;30.84;29.92
47761;BME280;33524;55.434;38.520;2022-08-11T12:28:51;101084.31;;;31.81;28.53
47761;BME280;33524;55.434;38.520;2022-08-11T12:31:19;101082.31;;;32.23;26.96
47761;BME280;33524;55.434;38.520;2022-08-11T12:33:52;101075.06;;;32.41;27.06
47761;BME280;33524;55.434;38.520;2022-08-11T12:36:22;101074.97;;;31.88;25.72
47761;BME280;33524;55.434;38.520;2022-08-11T12:38:49;101073.34;;;32.75;24.89
47761;BME280;33524;55.434;38.520;2022-08-11T12:41:20;101075.34;;;32.80;25.01
47761;BME280;33524;55.434;38.520;2022-08-11T12:44:08;101082.78;;;30.89;27.17
47761;BME280;33524;55.434;38.520;2022-08-11T12:46:56;101083.16;;;31.04;30.58
47761;BME280;33524;55.434;38.520;2022-08-11T12:49:25;101075.44;;;31.31;28.51
47761;BME280;33524;55.434;38.520;2022-08-11T12:52:16;101072.94;;;32.54;25.93
47761;BME280;33524;55.434;38.520;2022-08-11T12:54:50;101068.53;;;33.40;26.09
47761;BME280;33524;55.434;38.520;2022-08-11T12:57:34;101072.00;;;33.35;25.84
47761;BME280;33524;55.434;38.520;2022-08-11T13:00:22;101075.72;;;32.71;26.31
47761;BME280;33524;55.434;38.520;2022-08-11T13:03:10;101075.94;;;30.80;29.88
47761;BME280;33524;55.434;38.520;2022-08-11T13:06:00;101084.13;;;29.49;33.07
47761;BME280;33524;55.434;38.520;2022-08-11T13:08:30;101087.09;;;28.57;35.57
47761;BME280;33524;55.434;38.520;2022-08-11T13:11:00;101077.63;;;28.08;35.51
47761;BME280;33524;55.434;38.520;2022-08-11T13:13:47;101078.13;;;28.63;34.94
47761;BME280;33524;55.434;38.520;2022-08-11T13:16:29;101092.78;;;27.69;37.96
47761;BME280;33524;55.434;38.520;2022-08-11T13:18:58;101089.06;;;26.95;37.24
47761;BME280;33524;55.434;38.520;2022-08-11T13:21:29;101081.03;;;26.60;35.22
47761;BME280;33524;55.434;38.520;2022-08-11T13:23:58;101083.00;;;26.45;36.42
47761;BME280;33524;55.434;38.520;2022-08-11T13:26:30;101078.41;;;26.38;37.11
47761;BME280;33524;55.434;38.520;2022-08-11T13:29:23;101085.47;;;26.40;42.22
47761;BME280;33524;55.434;38.520;2022-08-11T13:31:52;101075.81;;;26.17;40.16
47761;BME280;33524;55.434;38.520;2022-08-11T13:34:21;101078.16;;;26.68;42.85
47761;BME280;33524;55.434;38.520;2022-08-11T13:36:50;101073.41;;;28.25;35.31
47761;BME280;33524;55.434;38.520;2022-08-11T13:39:30;101060.16;;;30.58;28.67
47761;BME280;33524;55.434;38.520;2022-08-11T13:42:00;101050.84;;;32.96;26.47
47761;BME280;33524;55.434;38.520;2022-08-11T13:44:30;101047.97;;;34.88;25.04
47761;BME280;33524;55.434;38.520;2022-08-11T13:47:04;101046.75;;;36.08;21.61
47761;BME280;33524;55.434;38.520;2022-08-11T13:49:36;101042.31;;;36.60;20.46
47761;BME280;33524;55.434;38.520;2022-08-11T13:52:10;101040.75;;;36.89;19.93
47761;BME280;33524;55.434;38.520;2022-08-11T13:54:40;101036.69;;;37.48;19.12
47761;BME280;33524;55.434;38.520;2022-08-11T13:57:09;101030.56;;;37.98;18.52
47761;BME280;33524;55.434;38.520;2022-08-11T14:00:02;101029.72;;;37.97;18.37
47761;BME280;33524;55.434;38.520;2022-08-11T14:02:53;101031.19;;;37.48;18.43
47761;BME280;33524;55.434;38.520;2022-08-11T14:05:24;101031.47;;;38.43;17.07
47761;BME280;33524;55.434;38.520;2022-08-11T14:08:03;101041.91;;;33.13;21.87
47761;BME280;33524;55.434;38.520;2022-08-11T14:10:33;101045.25;;;33.03;22.91
47761;BME280;33524;55.434;38.520;2022-08-11T14:13:09;101050.37;;;29.95;26.34
47761;BME280;33524;55.434;38.520;2022-08-11T14:16:25;101063.66;;;28.83;29.00
47761;BME280;33524;55.434;38.520;2022-08-11T14:18:56;101059.94;;;27.58;31.16
47761;BME280;33524;55.434;38.520;2022-08-11T14:21:26;101062.00;;;27.56;32.57
47761;BME280;33524;55.434;38.520;2022-08-11T14:24:20;101061.59;;;27.60;36.12
47761;BME280;33524;55.434;38.520;2022-08-11T14:26:48;101048.91;;;28.07;33.32
47761;BME280;33524;55.434;38.520;2022-08-11T14:29:18;101048.78;;;28.60;31.71
47761;BME280;33524;55.434;38.520;2022-08-11T14:32:01;101036.87;;;31.65;26.53
47761;BME280;33524;55.434;38.520;2022-08-11T14:34:30;101027.53;;;33.85;23.14
47761;BME280;33524;55.434;38.520;2022-08-11T14:37:00;101016.16;;;34.76;21.43
47761;BME280;33524;55.434;38.520;2022-08-11T14:39:28;101017.03;;;35.79;20.05
47761;BME280;33524;55.434;38.520;2022-08-11T14:41:58;101012.09;;;36.34;19.71
47761;BME280;33524;55.434;38.520;2022-08-11T14:44:47;101008.66;;;36.69;18.94
47761;BME280;33524;55.434;38.520;2022-08-11T14:47:38;101003.72;;;36.82;18.70
47761;BME280;33524;55.434;38.520;2022-08-11T14:50:15;101014.91;;;36.60;18.97
47761;BME280;33524;55.434;38.520;2022-08-11T14:53:05;101011.34;;;36.54;18.47
47761;BME280;33524;55.434;38.520;2022-08-11T14:55:57;101012.25;;;37.06;18.09
47761;BME280;33524;55.434;38.520;2022-08-11T14:58:46;101014.16;;;36.90;18.33
47761;BME280;33524;55.434;38.520;2022-08-11T15:01:14;101008.00;;;36.36;18.78
47761;BME280;33524;55.434;38.520;2022-08-11T15:04:00;101008.62;;;36.59;18.77
47761;BME280;33524;55.434;38.520;2022-08-11T15:06:48;101014.91;;;35.96;20.23
47761;BME280;33524;55.434;38.520;2022-08-11T15:09:17;101008.44;;;34.24;21.95
47761;BME280;33524;55.434;38.520;2022-08-11T15:11:45;101014.03;;;33.23;23.25
47761;BME280;33524;55.434;38.520;2022-08-11T15:14:51;101013.97;;;32.60;23.67
47761;BME280;33524;55.434;38.520;2022-08-11T15:17:39;101014.25;;;30.87;26.44
47761;BME280;33524;55.434;38.520;2022-08-11T15:20:11;101026.00;;;31.65;26.82
47761;BME280;33524;55.434;38.520;2022-08-11T15:22:58;101021.16;;;32.14;26.48
47761;BME280;33524;55.434;38.520;2022-08-11T15:25:46;101018.34;;;33.91;23.43
47761;BME280;33524;55.434;38.520;2022-08-11T15:28:16;101010.66;;;35.04;21.98
47761;BME280;33524;55.434;38.520;2022-08-11T15:31:03;101007.38;;;35.29;21.04
47761;BME280;33524;55.434;38.520;2022-08-11T15:33:51;101011.25;;;35.38;20.72
47761;BME280;33524;55.434;38.520;2022-08-11T15:36:45;101010.94;;;35.67;20.56
47761;BME280;33524;55.434;38.520;2022-08-11T15:39:37;101001.38;;;35.69;21.13
47761;BME280;33524;55.434;38.520;2022-08-11T15:42:29;101011.22;;;35.33;20.84
47761;BME280;33524;55.434;38.520;2022-08-11T15:45:19;101014.44;;;33.65;22.50
47761;BME280;33524;55.434;38.520;2022-08-11T15:48:08;101020.84;;;31.09;25.68
47761;BME280;33524;55.434;38.520;2022-08-11T15:50:56;101016.87;;;29.89;27.89
47761;BME280;33524;55.434;38.520;2022-08-11T15:53:41;101023.59;;;31.33;26.68
47761;BME280;33524;55.434;38.520;2022-08-11T15:56:26;101016.06;;;32.29;25.44
47761;BME280;33524;55.434;38.520;2022-08-11T15:58:56;101010.94;;;32.73;24.84
47761;BME280;33524;55.434;38.520;2022-08-11T16:02:03;101013.63;;;32.56;25.60
47761;BME280;33524;55.434;38.520;2022-08-11T16:04:51;101004.19;;;32.76;25.64
47761;BME280;33524;55.434;38.520;2022-08-11T16:07:22;101011.91;;;32.67;25.61
47761;BME280;33524;55.434;38.520;2022-08-11T16:10:00;101011.25;;;32.60;25.91
47761;BME280;33524;55.434;38.520;2022-08-11T16:12:31;101011.84;;;32.50;25.76
47761;BME280;33524;55.434;38.520;2022-08-11T16:15:05;101019.56;;;32.42;26.21
47761;BME280;33524;55.434;38.520;2022-08-11T16:17:56;101016.16;;;32.23;27.25
47761;BME280;33524;55.434;38.520;2022-08-11T16:20:27;101019.03;;;31.92;27.56
47761;BME280;33524;55.434;38.520;2022-08-11T16:22:58;101018.56;;;31.60;27.87
47761;BME280;33524;55.434;38.520;2022-08-11T16:25:29;101025.12;;;31.29;28.65
47761;BME280;33524;55.434;38.520;2022-08-11T16:28:19;101020.03;;;31.21;28.87
47761;BME280;33524;55.434;38.520;2022-08-11T16:31:05;101022.38;;;31.05;28.28
47761;BME280;33524;55.434;38.520;2022-08-11T16:33:38;101019.69;;;30.87;28.42
47761;BME280;33524;55.434;38.520;2022-08-11T16:36:17;101027.91;;;30.31;29.26
47761;BME280;33524;55.434;38.520;2022-08-11T16:39:04;101023.06;;;29.46;29.17
47761;BME280;33524;55.434;38.520;2022-08-11T16:41:34;101027.97;;;28.54;30.11